< < Back
Terminal Aerodrome Forecast


Current Version              Previous Versions:   1  2  3  4  5  6  7  8  9  

Terminal Aerodrome Forecast

762
FTUS44 KMOB 121255 AAA
TAFMOB
TAF AMD
KMOB 121255Z 1213/1312 25006KT P6SM SCT015 BKN045
     FM121400 26013KT P6SM SCT250
     FM121600 26012KT P6SM SCT015 SCT250
     FM130100 25008KT P6SM SCT250=



Latest METAR

734
SAUS80 KWBC 122200
MTRMOB
METAR KMOB 122156Z 29007G16KT 10SM FEW050 23/11 A3015 RMK AO2 SLP207
T02280111


USA.gov is the U.S. government's official web portal to all federal, state and local government web resources and services.